Terminal Aerodrome Forecast
Issued by NWS Jacksonville, FL

Home | Current Version | Previous Version | Text Only | Print | Product List | Glossary On
Versions: 1 2 3 4 5 6 7 8 9 10 11 12 13 14 15
000
FTUS42 KJAX 262327
TAFSSI
TAF
KSSI 262327Z 2700/2724 08007KT P6SM FEW035 SCT250
     FM271400 08011KT P6SM SCT035
     FM271700 09012G18KT P6SM BKN040 BKN250=

USA.gov is the U.S. government's official web portal to all federal, state and local government web resources and services.